sensor_id;sensor_type;location;lat;lon;timestamp;P1;durP1;ratioP1;P2;durP2;ratioP2
16352;SDS011;8286;51.274;9.542;2022-12-26T00:01:56;6.50;;;3.63;;
16352;SDS011;8286;51.274;9.542;2022-12-26T00:04:24;5.97;;;4.60;;
16352;SDS011;8286;51.274;9.542;2022-12-26T00:06:52;5.23;;;3.67;;
16352;SDS011;8286;51.274;9.542;2022-12-26T00:09:19;9.47;;;3.40;;
16352;SDS011;8286;51.274;9.542;2022-12-26T00:11:45;8.20;;;4.33;;
16352;SDS011;8286;51.274;9.542;2022-12-26T00:14:13;5.87;;;4.10;;
16352;SDS011;8286;51.274;9.542;2022-12-26T00:16:41;5.03;;;3.70;;
16352;SDS011;8286;51.274;9.542;2022-12-26T00:19:08;4.50;;;3.57;;
16352;SDS011;8286;51.274;9.542;2022-12-26T00:21:35;5.30;;;4.23;;
16352;SDS011;8286;51.274;9.542;2022-12-26T00:24:03;5.40;;;3.33;;
16352;SDS011;8286;51.274;9.542;2022-12-26T00:26:31;4.43;;;3.37;;
16352;SDS011;8286;51.274;9.542;2022-12-26T00:28:59;4.30;;;3.90;;
16352;SDS011;8286;51.274;9.542;2022-12-26T00:31:26;5.07;;;3.50;;
16352;SDS011;8286;51.274;9.542;2022-12-26T00:33:54;5.30;;;3.37;;
16352;SDS011;8286;51.274;9.542;2022-12-26T00:36:21;5.33;;;3.23;;
16352;SDS011;8286;51.274;9.542;2022-12-26T00:38:49;6.23;;;3.50;;
16352;SDS011;8286;51.274;9.542;2022-12-26T00:41:18;5.50;;;3.60;;
16352;SDS011;8286;51.274;9.542;2022-12-26T00:43:45;5.40;;;3.77;;
16352;SDS011;8286;51.274;9.542;2022-12-26T00:46:12;7.47;;;3.50;;
16352;SDS011;8286;51.274;9.542;2022-12-26T00:48:39;5.80;;;3.87;;
16352;SDS011;8286;51.274;9.542;2022-12-26T00:51:06;7.70;;;3.93;;
16352;SDS011;8286;51.274;9.542;2022-12-26T00:53:32;4.83;;;3.80;;
16352;SDS011;8286;51.274;9.542;2022-12-26T00:55:59;4.97;;;3.47;;
16352;SDS011;8286;51.274;9.542;2022-12-26T00:58:27;12.60;;;5.27;;
16352;SDS011;8286;51.274;9.542;2022-12-26T01:00:54;12.07;;;6.17;;
16352;SDS011;8286;51.274;9.542;2022-12-26T01:03:21;15.60;;;6.63;;
16352;SDS011;8286;51.274;9.542;2022-12-26T01:05:48;18.30;;;8.57;;
16352;SDS011;8286;51.274;9.542;2022-12-26T01:08:16;14.30;;;7.10;;
16352;SDS011;8286;51.274;9.542;2022-12-26T01:10:44;19.97;;;8.80;;
16352;SDS011;8286;51.274;9.542;2022-12-26T01:13:11;22.40;;;10.43;;
16352;SDS011;8286;51.274;9.542;2022-12-26T01:15:42;40.70;;;18.10;;
16352;SDS011;8286;51.274;9.542;2022-12-26T01:18:12;108.47;;;39.07;;
16352;SDS011;8286;51.274;9.542;2022-12-26T01:20:39;69.53;;;29.47;;
16352;SDS011;8286;51.274;9.542;2022-12-26T01:23:06;76.40;;;35.17;;
16352;SDS011;8286;51.274;9.542;2022-12-26T01:25:32;66.73;;;44.17;;
16352;SDS011;8286;51.274;9.542;2022-12-26T01:27:59;41.27;;;29.93;;
16352;SDS011;8286;51.274;9.542;2022-12-26T01:30:25;15.17;;;12.23;;
16352;SDS011;8286;51.274;9.542;2022-12-26T01:32:53;22.77;;;17.50;;
16352;SDS011;8286;51.274;9.542;2022-12-26T01:35:20;13.00;;;10.00;;
16352;SDS011;8286;51.274;9.542;2022-12-26T01:37:47;9.63;;;6.70;;
16352;SDS011;8286;51.274;9.542;2022-12-26T01:40:14;39.73;;;25.50;;
16352;SDS011;8286;51.274;9.542;2022-12-26T01:42:40;18.17;;;11.40;;
16352;SDS011;8286;51.274;9.542;2022-12-26T01:45:16;35.33;;;19.70;;
16352;SDS011;8286;51.274;9.542;2022-12-26T01:47:54;17.03;;;7.87;;
16352;SDS011;8286;51.274;9.542;2022-12-26T01:50:27;12.13;;;6.30;;
16352;SDS011;8286;51.274;9.542;2022-12-26T01:52:57;9.10;;;5.10;;
16352;SDS011;8286;51.274;9.542;2022-12-26T01:55:26;6.00;;;3.90;;
16352;SDS011;8286;51.274;9.542;2022-12-26T01:57:54;9.30;;;5.20;;
16352;SDS011;8286;51.274;9.542;2022-12-26T02:00:22;6.27;;;3.77;;
16352;SDS011;8286;51.274;9.542;2022-12-26T02:02:48;4.33;;;3.70;;
16352;SDS011;8286;51.274;9.542;2022-12-26T02:05:34;4.87;;;3.47;;
16352;SDS011;8286;51.274;9.542;2022-12-26T02:08:02;4.23;;;3.33;;
16352;SDS011;8286;51.274;9.542;2022-12-26T02:10:30;5.30;;;3.53;;
16352;SDS011;8286;51.274;9.542;2022-12-26T02:12:59;5.80;;;3.43;;
16352;SDS011;8286;51.274;9.542;2022-12-26T02:15:26;8.90;;;3.60;;
16352;SDS011;8286;51.274;9.542;2022-12-26T02:17:53;8.90;;;3.30;;
16352;SDS011;8286;51.274;9.542;2022-12-26T02:20:20;7.77;;;3.30;;
16352;SDS011;8286;51.274;9.542;2022-12-26T02:22:58;5.27;;;3.13;;
16352;SDS011;8286;51.274;9.542;2022-12-26T02:25:50;4.33;;;3.03;;
16352;SDS011;8286;51.274;9.542;2022-12-26T02:28:30;5.40;;;3.60;;
16352;SDS011;8286;51.274;9.542;2022-12-26T02:31:08;4.00;;;3.13;;
16352;SDS011;8286;51.274;9.542;2022-12-26T02:33:42;5.70;;;3.37;;
16352;SDS011;8286;51.274;9.542;2022-12-26T02:36:21;4.30;;;3.23;;
16352;SDS011;8286;51.274;9.542;2022-12-26T02:39:02;5.77;;;2.70;;
16352;SDS011;8286;51.274;9.542;2022-12-26T02:41:35;6.70;;;3.67;;
16352;SDS011;8286;51.274;9.542;2022-12-26T02:44:12;4.80;;;2.90;;
16352;SDS011;8286;51.274;9.542;2022-12-26T02:47:01;4.30;;;3.73;;
16352;SDS011;8286;51.274;9.542;2022-12-26T02:52:43;5.07;;;3.30;;
16352;SDS011;8286;51.274;9.542;2022-12-26T02:55:33;3.67;;;3.23;;
16352;SDS011;8286;51.274;9.542;2022-12-26T02:58:21;5.03;;;3.27;;
16352;SDS011;8286;51.274;9.542;2022-12-26T03:01:10;6.63;;;4.20;;
16352;SDS011;8286;51.274;9.542;2022-12-26T03:04:13;3.87;;;3.20;;
16352;SDS011;8286;51.274;9.542;2022-12-26T03:06:59;5.57;;;3.30;;
16352;SDS011;8286;51.274;9.542;2022-12-26T03:09:47;4.70;;;3.13;;
16352;SDS011;8286;51.274;9.542;2022-12-26T03:12:33;4.97;;;3.10;;
16352;SDS011;8286;51.274;9.542;2022-12-26T03:15:21;3.20;;;2.90;;
16352;SDS011;8286;51.274;9.542;2022-12-26T03:17:52;7.00;;;3.00;;
16352;SDS011;8286;51.274;9.542;2022-12-26T03:20:22;5.23;;;3.13;;
16352;SDS011;8286;51.274;9.542;2022-12-26T03:22:50;6.20;;;2.87;;
16352;SDS011;8286;51.274;9.542;2022-12-26T03:25:19;3.80;;;3.00;;
16352;SDS011;8286;51.274;9.542;2022-12-26T03:28:06;3.03;;;2.40;;
16352;SDS011;8286;51.274;9.542;2022-12-26T03:30:33;3.77;;;2.80;;
16352;SDS011;8286;51.274;9.542;2022-12-26T03:33:14;3.40;;;2.53;;
16352;SDS011;8286;51.274;9.542;2022-12-26T03:36:05;3.43;;;2.43;;
16352;SDS011;8286;51.274;9.542;2022-12-26T03:38:33;3.00;;;2.70;;
16352;SDS011;8286;51.274;9.542;2022-12-26T03:41:16;4.03;;;3.13;;
16352;SDS011;8286;51.274;9.542;2022-12-26T03:44:09;4.33;;;3.10;;
16352;SDS011;8286;51.274;9.542;2022-12-26T03:47:04;3.47;;;2.90;;
16352;SDS011;8286;51.274;9.542;2022-12-26T03:49:55;5.53;;;3.10;;
16352;SDS011;8286;51.274;9.542;2022-12-26T03:52:47;4.53;;;3.03;;
16352;SDS011;8286;51.274;9.542;2022-12-26T03:55:39;5.80;;;2.80;;
16352;SDS011;8286;51.274;9.542;2022-12-26T03:58:26;5.60;;;2.93;;
16352;SDS011;8286;51.274;9.542;2022-12-26T04:01:13;2.83;;;2.60;;
16352;SDS011;8286;51.274;9.542;2022-12-26T04:03:58;3.70;;;2.40;;
16352;SDS011;8286;51.274;9.542;2022-12-26T04:06:44;4.37;;;2.50;;
16352;SDS011;8286;51.274;9.542;2022-12-26T04:09:39;5.27;;;2.53;;
16352;SDS011;8286;51.274;9.542;2022-12-26T04:12:25;3.90;;;2.97;;
16352;SDS011;8286;51.274;9.542;2022-12-26T04:15:12;3.50;;;3.20;;
16352;SDS011;8286;51.274;9.542;2022-12-26T04:18:02;3.73;;;2.70;;
16352;SDS011;8286;51.274;9.542;2022-12-26T04:20:53;2.70;;;2.50;;
16352;SDS011;8286;51.274;9.542;2022-12-26T04:23:29;7.77;;;2.87;;
16352;SDS011;8286;51.274;9.542;2022-12-26T04:26:18;6.07;;;3.10;;
16352;SDS011;8286;51.274;9.542;2022-12-26T04:29:06;3.97;;;2.73;;
16352;SDS011;8286;51.274;9.542;2022-12-26T04:31:52;6.87;;;2.90;;
16352;SDS011;8286;51.274;9.542;2022-12-26T04:34:39;3.10;;;2.80;;
16352;SDS011;8286;51.274;9.542;2022-12-26T04:37:26;3.83;;;2.67;;
16352;SDS011;8286;51.274;9.542;2022-12-26T04:40:13;3.63;;;2.80;;
16352;SDS011;8286;51.274;9.542;2022-12-26T04:43:00;2.77;;;2.10;;
16352;SDS011;8286;51.274;9.542;2022-12-26T04:45:45;3.30;;;2.23;;
16352;SDS011;8286;51.274;9.542;2022-12-26T04:48:12;3.60;;;2.30;;
16352;SDS011;8286;51.274;9.542;2022-12-26T04:50:56;3.53;;;3.00;;
16352;SDS011;8286;51.274;9.542;2022-12-26T04:53:23;5.63;;;2.57;;
16352;SDS011;8286;51.274;9.542;2022-12-26T04:55:49;4.13;;;2.70;;
16352;SDS011;8286;51.274;9.542;2022-12-26T04:58:17;5.60;;;3.20;;
16352;SDS011;8286;51.274;9.542;2022-12-26T05:00:44;3.70;;;2.43;;
16352;SDS011;8286;51.274;9.542;2022-12-26T05:03:11;4.53;;;2.93;;
16352;SDS011;8286;51.274;9.542;2022-12-26T05:05:56;5.23;;;3.43;;
16352;SDS011;8286;51.274;9.542;2022-12-26T05:08:41;6.43;;;3.00;;
16352;SDS011;8286;51.274;9.542;2022-12-26T05:11:26;2.77;;;2.50;;
16352;SDS011;8286;51.274;9.542;2022-12-26T05:13:54;4.77;;;3.00;;
16352;SDS011;8286;51.274;9.542;2022-12-26T05:16:22;3.20;;;2.90;;
16352;SDS011;8286;51.274;9.542;2022-12-26T05:19:08;7.03;;;3.33;;
16352;SDS011;8286;51.274;9.542;2022-12-26T05:21:53;3.30;;;2.83;;
16352;SDS011;8286;51.274;9.542;2022-12-26T05:24:38;4.20;;;2.90;;
16352;SDS011;8286;51.274;9.542;2022-12-26T05:27:38;5.60;;;2.83;;
16352;SDS011;8286;51.274;9.542;2022-12-26T05:30:24;4.37;;;2.77;;
16352;SDS011;8286;51.274;9.542;2022-12-26T05:32:51;3.87;;;2.83;;
16352;SDS011;8286;51.274;9.542;2022-12-26T05:35:35;3.07;;;2.40;;
16352;SDS011;8286;51.274;9.542;2022-12-26T05:38:02;6.57;;;3.30;;
16352;SDS011;8286;51.274;9.542;2022-12-26T05:40:29;4.00;;;3.00;;
16352;SDS011;8286;51.274;9.542;2022-12-26T05:42:55;4.80;;;3.37;;
16352;SDS011;8286;51.274;9.542;2022-12-26T05:45:22;4.90;;;2.60;;
16352;SDS011;8286;51.274;9.542;2022-12-26T05:47:50;3.20;;;2.73;;
16352;SDS011;8286;51.274;9.542;2022-12-26T05:50:23;10.23;;;2.73;;
16352;SDS011;8286;51.274;9.542;2022-12-26T05:52:49;3.00;;;2.57;;
16352;SDS011;8286;51.274;9.542;2022-12-26T05:55:16;4.93;;;3.20;;
16352;SDS011;8286;51.274;9.542;2022-12-26T05:57:42;4.23;;;2.93;;
16352;SDS011;8286;51.274;9.542;2022-12-26T06:00:09;5.60;;;3.23;;
16352;SDS011;8286;51.274;9.542;2022-12-26T06:02:37;4.83;;;2.70;;
16352;SDS011;8286;51.274;9.542;2022-12-26T06:05:05;4.33;;;2.70;;
16352;SDS011;8286;51.274;9.542;2022-12-26T06:07:31;2.60;;;2.40;;
16352;SDS011;8286;51.274;9.542;2022-12-26T06:09:58;2.87;;;2.30;;
16352;SDS011;8286;51.274;9.542;2022-12-26T06:12:25;3.43;;;3.07;;
16352;SDS011;8286;51.274;9.542;2022-12-26T06:14:51;3.60;;;2.33;;
16352;SDS011;8286;51.274;9.542;2022-12-26T06:19:52;4.97;;;2.80;;
16352;SDS011;8286;51.274;9.542;2022-12-26T06:22:20;4.07;;;2.67;;
16352;SDS011;8286;51.274;9.542;2022-12-26T06:24:47;3.67;;;2.77;;
16352;SDS011;8286;51.274;9.542;2022-12-26T06:27:13;3.47;;;2.60;;
16352;SDS011;8286;51.274;9.542;2022-12-26T06:29:40;5.53;;;2.83;;
16352;SDS011;8286;51.274;9.542;2022-12-26T06:32:07;4.50;;;2.77;;
16352;SDS011;8286;51.274;9.542;2022-12-26T06:34:33;4.73;;;2.40;;
16352;SDS011;8286;51.274;9.542;2022-12-26T06:37:00;3.40;;;2.50;;
16352;SDS011;8286;51.274;9.542;2022-12-26T06:39:28;3.87;;;2.43;;
16352;SDS011;8286;51.274;9.542;2022-12-26T06:41:54;4.43;;;2.50;;
16352;SDS011;8286;51.274;9.542;2022-12-26T06:44:21;3.67;;;2.27;;
16352;SDS011;8286;51.274;9.542;2022-12-26T06:46:48;4.10;;;2.30;;
16352;SDS011;8286;51.274;9.542;2022-12-26T06:49:14;3.17;;;2.30;;
16352;SDS011;8286;51.274;9.542;2022-12-26T06:51:41;2.50;;;2.30;;
16352;SDS011;8286;51.274;9.542;2022-12-26T06:54:09;2.50;;;2.13;;
16352;SDS011;8286;51.274;9.542;2022-12-26T06:56:37;3.00;;;2.07;;
16352;SDS011;8286;51.274;9.542;2022-12-26T06:59:04;2.37;;;2.17;;
16352;SDS011;8286;51.274;9.542;2022-12-26T07:01:32;3.60;;;2.43;;
16352;SDS011;8286;51.274;9.542;2022-12-26T07:03:59;3.17;;;2.40;;
16352;SDS011;8286;51.274;9.542;2022-12-26T07:06:27;4.53;;;2.37;;
16352;SDS011;8286;51.274;9.542;2022-12-26T07:08:55;2.43;;;2.23;;
16352;SDS011;8286;51.274;9.542;2022-12-26T07:11:23;4.13;;;2.57;;
16352;SDS011;8286;51.274;9.542;2022-12-26T07:13:53;6.87;;;3.17;;
16352;SDS011;8286;51.274;9.542;2022-12-26T07:16:20;6.87;;;2.70;;
16352;SDS011;8286;51.274;9.542;2022-12-26T07:18:47;8.77;;;3.00;;
16352;SDS011;8286;51.274;9.542;2022-12-26T07:21:14;4.40;;;2.70;;
16352;SDS011;8286;51.274;9.542;2022-12-26T07:23:41;5.20;;;2.80;;
16352;SDS011;8286;51.274;9.542;2022-12-26T07:26:08;7.07;;;3.10;;
16352;SDS011;8286;51.274;9.542;2022-12-26T07:28:34;3.30;;;2.80;;
16352;SDS011;8286;51.274;9.542;2022-12-26T07:31:02;6.57;;;3.00;;
16352;SDS011;8286;51.274;9.542;2022-12-26T07:33:29;5.33;;;3.20;;
16352;SDS011;8286;51.274;9.542;2022-12-26T07:35:57;3.57;;;2.73;;
16352;SDS011;8286;51.274;9.542;2022-12-26T07:38:24;4.00;;;3.20;;
16352;SDS011;8286;51.274;9.542;2022-12-26T07:40:53;9.90;;;3.60;;
16352;SDS011;8286;51.274;9.542;2022-12-26T07:43:20;5.50;;;3.20;;
16352;SDS011;8286;51.274;9.542;2022-12-26T07:45:46;5.37;;;3.43;;
16352;SDS011;8286;51.274;9.542;2022-12-26T07:48:15;4.80;;;2.97;;
16352;SDS011;8286;51.274;9.542;2022-12-26T07:50:41;3.70;;;3.10;;
16352;SDS011;8286;51.274;9.542;2022-12-26T07:53:11;3.70;;;2.80;;
16352;SDS011;8286;51.274;9.542;2022-12-26T07:55:37;7.10;;;2.80;;
16352;SDS011;8286;51.274;9.542;2022-12-26T07:58:04;3.27;;;2.30;;
16352;SDS011;8286;51.274;9.542;2022-12-26T08:00:31;2.37;;;2.17;;
16352;SDS011;8286;51.274;9.542;2022-12-26T08:02:58;3.30;;;2.00;;
16352;SDS011;8286;51.274;9.542;2022-12-26T08:05:25;2.20;;;1.90;;
16352;SDS011;8286;51.274;9.542;2022-12-26T08:07:52;1.43;;;1.33;;
16352;SDS011;8286;51.274;9.542;2022-12-26T08:10:19;1.37;;;1.20;;
16352;SDS011;8286;51.274;9.542;2022-12-26T08:12:45;1.03;;;0.90;;
16352;SDS011;8286;51.274;9.542;2022-12-26T08:15:12;1.03;;;0.90;;
16352;SDS011;8286;51.274;9.542;2022-12-26T08:17:38;1.20;;;1.10;;
16352;SDS011;8286;51.274;9.542;2022-12-26T08:20:05;1.30;;;1.20;;
16352;SDS011;8286;51.274;9.542;2022-12-26T08:22:34;1.00;;;1.00;;
16352;SDS011;8286;51.274;9.542;2022-12-26T08:25:00;1.73;;;1.00;;
16352;SDS011;8286;51.274;9.542;2022-12-26T08:27:27;2.33;;;1.07;;
16352;SDS011;8286;51.274;9.542;2022-12-26T08:29:54;1.10;;;1.00;;
16352;SDS011;8286;51.274;9.542;2022-12-26T08:32:21;1.30;;;1.00;;
16352;SDS011;8286;51.274;9.542;2022-12-26T08:34:48;1.23;;;1.13;;
16352;SDS011;8286;51.274;9.542;2022-12-26T08:37:15;2.20;;;1.23;;
16352;SDS011;8286;51.274;9.542;2022-12-26T08:39:43;1.07;;;1.07;;
16352;SDS011;8286;51.274;9.542;2022-12-26T08:42:10;1.50;;;1.03;;
16352;SDS011;8286;51.274;9.542;2022-12-26T08:44:36;1.20;;;1.10;;
16352;SDS011;8286;51.274;9.542;2022-12-26T08:47:03;0.93;;;0.90;;
16352;SDS011;8286;51.274;9.542;2022-12-26T08:49:30;1.00;;;1.00;;
16352;SDS011;8286;51.274;9.542;2022-12-26T08:51:56;1.67;;;0.87;;
16352;SDS011;8286;51.274;9.542;2022-12-26T08:54:23;0.90;;;0.90;;
16352;SDS011;8286;51.274;9.542;2022-12-26T08:56:51;0.80;;;0.80;;
16352;SDS011;8286;51.274;9.542;2022-12-26T08:59:17;1.83;;;0.90;;
16352;SDS011;8286;51.274;9.542;2022-12-26T09:01:44;1.13;;;1.00;;
16352;SDS011;8286;51.274;9.542;2022-12-26T09:04:11;1.27;;;1.00;;
16352;SDS011;8286;51.274;9.542;2022-12-26T09:06:37;3.73;;;1.30;;
16352;SDS011;8286;51.274;9.542;2022-12-26T09:09:05;2.13;;;1.30;;
16352;SDS011;8286;51.274;9.542;2022-12-26T09:11:33;1.10;;;1.00;;
16352;SDS011;8286;51.274;9.542;2022-12-26T09:14:01;2.37;;;1.00;;
16352;SDS011;8286;51.274;9.542;2022-12-26T09:16:29;2.20;;;1.00;;
16352;SDS011;8286;51.274;9.542;2022-12-26T09:18:58;0.90;;;0.90;;
16352;SDS011;8286;51.274;9.542;2022-12-26T09:21:26;0.80;;;0.80;;
16352;SDS011;8286;51.274;9.542;2022-12-26T09:23:55;5.07;;;1.40;;
16352;SDS011;8286;51.274;9.542;2022-12-26T09:26:22;1.47;;;1.37;;
16352;SDS011;8286;51.274;9.542;2022-12-26T09:28:48;1.17;;;0.90;;
16352;SDS011;8286;51.274;9.542;2022-12-26T09:31:17;1.70;;;0.97;;
16352;SDS011;8286;51.274;9.542;2022-12-26T09:33:45;1.17;;;1.10;;
16352;SDS011;8286;51.274;9.542;2022-12-26T09:36:13;0.77;;;0.77;;
16352;SDS011;8286;51.274;9.542;2022-12-26T09:38:41;1.13;;;1.13;;
16352;SDS011;8286;51.274;9.542;2022-12-26T09:41:12;0.70;;;0.70;;
16352;SDS011;8286;51.274;9.542;2022-12-26T09:43:49;0.70;;;0.70;;
16352;SDS011;8286;51.274;9.542;2022-12-26T09:46:23;1.03;;;1.03;;
16352;SDS011;8286;51.274;9.542;2022-12-26T09:48:56;0.87;;;0.87;;
16352;SDS011;8286;51.274;9.542;2022-12-26T09:51:26;0.70;;;0.70;;
16352;SDS011;8286;51.274;9.542;2022-12-26T09:53:55;0.70;;;0.70;;
16352;SDS011;8286;51.274;9.542;2022-12-26T09:56:24;1.30;;;0.90;;
16352;SDS011;8286;51.274;9.542;2022-12-26T09:58:52;0.80;;;0.80;;
16352;SDS011;8286;51.274;9.542;2022-12-26T10:01:22;1.10;;;0.80;;
16352;SDS011;8286;51.274;9.542;2022-12-26T10:03:51;2.77;;;1.50;;
16352;SDS011;8286;51.274;9.542;2022-12-26T10:06:20;0.83;;;0.83;;
16352;SDS011;8286;51.274;9.542;2022-12-26T10:08:52;1.00;;;1.00;;
16352;SDS011;8286;51.274;9.542;2022-12-26T10:11:40;2.00;;;0.83;;
16352;SDS011;8286;51.274;9.542;2022-12-26T10:14:15;1.07;;;0.80;;
16352;SDS011;8286;51.274;9.542;2022-12-26T10:16:49;0.83;;;0.83;;
16352;SDS011;8286;51.274;9.542;2022-12-26T10:19:26;0.80;;;0.70;;
16352;SDS011;8286;51.274;9.542;2022-12-26T10:22:02;0.93;;;0.93;;
16352;SDS011;8286;51.274;9.542;2022-12-26T10:24:37;1.27;;;1.00;;
16352;SDS011;8286;51.274;9.542;2022-12-26T10:27:09;1.07;;;0.90;;
16352;SDS011;8286;51.274;9.542;2022-12-26T10:29:38;0.80;;;0.80;;
16352;SDS011;8286;51.274;9.542;2022-12-26T10:32:10;2.93;;;0.93;;
16352;SDS011;8286;51.274;9.542;2022-12-26T10:34:39;1.17;;;1.07;;
16352;SDS011;8286;51.274;9.542;2022-12-26T10:37:09;0.83;;;0.83;;
16352;SDS011;8286;51.274;9.542;2022-12-26T10:39:41;0.93;;;0.90;;
16352;SDS011;8286;51.274;9.542;2022-12-26T10:42:12;1.70;;;0.80;;
16352;SDS011;8286;51.274;9.542;2022-12-26T10:44:43;0.97;;;0.97;;
16352;SDS011;8286;51.274;9.542;2022-12-26T10:47:13;3.77;;;1.07;;
16352;SDS011;8286;51.274;9.542;2022-12-26T10:49:49;0.87;;;0.87;;
16352;SDS011;8286;51.274;9.542;2022-12-26T10:52:16;0.60;;;0.60;;
16352;SDS011;8286;51.274;9.542;2022-12-26T10:54:44;0.90;;;0.83;;
16352;SDS011;8286;51.274;9.542;2022-12-26T10:57:12;0.77;;;0.70;;
16352;SDS011;8286;51.274;9.542;2022-12-26T10:59:40;0.80;;;0.80;;
16352;SDS011;8286;51.274;9.542;2022-12-26T11:02:12;0.90;;;0.90;;
16352;SDS011;8286;51.274;9.542;2022-12-26T11:04:59;0.97;;;0.93;;
16352;SDS011;8286;51.274;9.542;2022-12-26T11:07:31;2.27;;;0.70;;
16352;SDS011;8286;51.274;9.542;2022-12-26T11:10:00;2.53;;;0.90;;
16352;SDS011;8286;51.274;9.542;2022-12-26T11:12:29;0.80;;;0.80;;
16352;SDS011;8286;51.274;9.542;2022-12-26T11:15:02;1.80;;;0.90;;
16352;SDS011;8286;51.274;9.542;2022-12-26T11:17:33;0.57;;;0.57;;
16352;SDS011;8286;51.274;9.542;2022-12-26T11:20:23;1.97;;;0.70;;
16352;SDS011;8286;51.274;9.542;2022-12-26T11:22:53;1.87;;;0.90;;
16352;SDS011;8286;51.274;9.542;2022-12-26T11:25:21;0.87;;;0.87;;
16352;SDS011;8286;51.274;9.542;2022-12-26T11:27:50;1.43;;;1.10;;
16352;SDS011;8286;51.274;9.542;2022-12-26T11:30:22;0.90;;;0.90;;
16352;SDS011;8286;51.274;9.542;2022-12-26T11:33:10;2.03;;;0.97;;
16352;SDS011;8286;51.274;9.542;2022-12-26T11:35:44;0.70;;;0.70;;
16352;SDS011;8286;51.274;9.542;2022-12-26T11:38:14;0.80;;;0.80;;
16352;SDS011;8286;51.274;9.542;2022-12-26T11:40:59;1.47;;;0.70;;
16352;SDS011;8286;51.274;9.542;2022-12-26T11:43:44;0.80;;;0.80;;
16352;SDS011;8286;51.274;9.542;2022-12-26T11:46:11;0.70;;;0.70;;
16352;SDS011;8286;51.274;9.542;2022-12-26T11:48:39;0.90;;;0.90;;
16352;SDS011;8286;51.274;9.542;2022-12-26T11:51:06;0.87;;;0.80;;
16352;SDS011;8286;51.274;9.542;2022-12-26T11:53:34;0.77;;;0.77;;
16352;SDS011;8286;51.274;9.542;2022-12-26T11:56:02;0.70;;;0.70;;
16352;SDS011;8286;51.274;9.542;2022-12-26T11:58:30;0.77;;;0.77;;
16352;SDS011;8286;51.274;9.542;2022-12-26T12:01:10;1.07;;;0.97;;
16352;SDS011;8286;51.274;9.542;2022-12-26T12:03:40;1.07;;;0.70;;
16352;SDS011;8286;51.274;9.542;2022-12-26T12:06:17;1.03;;;1.03;;
16352;SDS011;8286;51.274;9.542;2022-12-26T12:08:52;1.30;;;1.20;;
16352;SDS011;8286;51.274;9.542;2022-12-26T12:11:26;1.70;;;1.10;;
16352;SDS011;8286;51.274;9.542;2022-12-26T12:16:54;0.80;;;0.80;;
16352;SDS011;8286;51.274;9.542;2022-12-26T12:22:17;1.20;;;1.13;;
16352;SDS011;8286;51.274;9.542;2022-12-26T12:28:25;0.93;;;0.90;;
16352;SDS011;8286;51.274;9.542;2022-12-26T12:31:00;2.00;;;1.00;;
16352;SDS011;8286;51.274;9.542;2022-12-26T12:33:36;1.63;;;1.00;;
16352;SDS011;8286;51.274;9.542;2022-12-26T12:36:09;2.97;;;1.27;;
16352;SDS011;8286;51.274;9.542;2022-12-26T12:38:41;2.00;;;1.17;;
16352;SDS011;8286;51.274;9.542;2022-12-26T12:41:18;1.50;;;1.00;;
16352;SDS011;8286;51.274;9.542;2022-12-26T12:43:52;1.27;;;1.20;;
16352;SDS011;8286;51.274;9.542;2022-12-26T12:46:22;1.40;;;1.33;;
16352;SDS011;8286;51.274;9.542;2022-12-26T12:49:00;3.50;;;1.10;;
16352;SDS011;8286;51.274;9.542;2022-12-26T12:51:37;2.47;;;1.10;;
16352;SDS011;8286;51.274;9.542;2022-12-26T12:54:18;1.27;;;0.97;;
16352;SDS011;8286;51.274;9.542;2022-12-26T12:57:00;0.90;;;0.90;;
16352;SDS011;8286;51.274;9.542;2022-12-26T12:59:33;3.50;;;1.50;;
16352;SDS011;8286;51.274;9.542;2022-12-26T13:02:04;2.00;;;1.20;;
16352;SDS011;8286;51.274;9.542;2022-12-26T13:04:39;1.47;;;1.00;;
16352;SDS011;8286;51.274;9.542;2022-12-26T13:07:09;2.40;;;1.20;;
16352;SDS011;8286;51.274;9.542;2022-12-26T13:09:41;0.90;;;0.90;;
16352;SDS011;8286;51.274;9.542;2022-12-26T13:12:10;1.73;;;0.90;;
16352;SDS011;8286;51.274;9.542;2022-12-26T13:14:41;3.03;;;1.17;;
16352;SDS011;8286;51.274;9.542;2022-12-26T13:17:10;0.73;;;0.73;;
16352;SDS011;8286;51.274;9.542;2022-12-26T13:19:40;1.17;;;0.90;;
16352;SDS011;8286;51.274;9.542;2022-12-26T13:22:12;3.27;;;1.17;;
16352;SDS011;8286;51.274;9.542;2022-12-26T13:24:50;1.57;;;1.03;;
16352;SDS011;8286;51.274;9.542;2022-12-26T13:27:24;1.47;;;1.10;;
16352;SDS011;8286;51.274;9.542;2022-12-26T13:29:52;1.60;;;1.00;;
16352;SDS011;8286;51.274;9.542;2022-12-26T13:32:19;2.73;;;1.10;;
16352;SDS011;8286;51.274;9.542;2022-12-26T13:34:47;1.37;;;1.27;;
16352;SDS011;8286;51.274;9.542;2022-12-26T13:40:20;1.60;;;1.00;;
16352;SDS011;8286;51.274;9.542;2022-12-26T13:42:49;1.83;;;1.20;;
16352;SDS011;8286;51.274;9.542;2022-12-26T13:45:38;4.33;;;1.20;;
16352;SDS011;8286;51.274;9.542;2022-12-26T13:54:30;0.97;;;0.97;;
16352;SDS011;8286;51.274;9.542;2022-12-26T13:57:05;2.73;;;1.30;;
16352;SDS011;8286;51.274;9.542;2022-12-26T13:59:55;1.60;;;1.00;;
16352;SDS011;8286;51.274;9.542;2022-12-26T14:02:43;1.37;;;1.27;;
16352;SDS011;8286;51.274;9.542;2022-12-26T14:05:20;1.43;;;1.33;;
16352;SDS011;8286;51.274;9.542;2022-12-26T14:07:52;1.20;;;1.20;;
16352;SDS011;8286;51.274;9.542;2022-12-26T14:10:26;4.50;;;1.50;;
16352;SDS011;8286;51.274;9.542;2022-12-26T14:13:00;3.00;;;1.33;;
16352;SDS011;8286;51.274;9.542;2022-12-26T14:15:36;1.40;;;1.30;;
16352;SDS011;8286;51.274;9.542;2022-12-26T14:18:09;1.30;;;1.20;;
16352;SDS011;8286;51.274;9.542;2022-12-26T14:20:45;2.47;;;1.20;;
16352;SDS011;8286;51.274;9.542;2022-12-26T14:23:19;1.37;;;1.10;;
16352;SDS011;8286;51.274;9.542;2022-12-26T14:26:04;1.17;;;0.97;;
16352;SDS011;8286;51.274;9.542;2022-12-26T14:28:42;1.10;;;1.00;;
16352;SDS011;8286;51.274;9.542;2022-12-26T14:31:16;3.90;;;1.30;;
16352;SDS011;8286;51.274;9.542;2022-12-26T14:33:47;2.83;;;0.97;;
16352;SDS011;8286;51.274;9.542;2022-12-26T14:36:21;0.97;;;0.83;;
16352;SDS011;8286;51.274;9.542;2022-12-26T14:38:54;1.07;;;1.00;;
16352;SDS011;8286;51.274;9.542;2022-12-26T14:41:26;2.27;;;0.77;;
16352;SDS011;8286;51.274;9.542;2022-12-26T14:44:14;0.73;;;0.70;;
16352;SDS011;8286;51.274;9.542;2022-12-26T14:46:55;0.90;;;0.90;;
16352;SDS011;8286;51.274;9.542;2022-12-26T14:49:34;1.00;;;1.00;;
16352;SDS011;8286;51.274;9.542;2022-12-26T14:54:56;4.30;;;0.93;;
16352;SDS011;8286;51.274;9.542;2022-12-26T14:57:44;3.03;;;1.00;;
16352;SDS011;8286;51.274;9.542;2022-12-26T15:00:22;1.63;;;0.90;;
16352;SDS011;8286;51.274;9.542;2022-12-26T15:03:11;1.00;;;0.90;;
16352;SDS011;8286;51.274;9.542;2022-12-26T15:06:16;3.50;;;1.10;;
16352;SDS011;8286;51.274;9.542;2022-12-26T15:09:17;1.20;;;1.10;;
16352;SDS011;8286;51.274;9.542;2022-12-26T15:12:01;0.90;;;0.90;;
16352;SDS011;8286;51.274;9.542;2022-12-26T15:14:51;1.73;;;0.87;;
16352;SDS011;8286;51.274;9.542;2022-12-26T15:17:33;1.83;;;1.00;;
16352;SDS011;8286;51.274;9.542;2022-12-26T15:20:10;1.17;;;1.07;;
16352;SDS011;8286;51.274;9.542;2022-12-26T15:23:19;2.53;;;1.03;;
16352;SDS011;8286;51.274;9.542;2022-12-26T15:29:00;0.97;;;0.80;;
16352;SDS011;8286;51.274;9.542;2022-12-26T15:31:46;3.70;;;1.30;;
16352;SDS011;8286;51.274;9.542;2022-12-26T15:34:31;1.13;;;1.03;;
16352;SDS011;8286;51.274;9.542;2022-12-26T15:37:16;2.37;;;0.80;;
16352;SDS011;8286;51.274;9.542;2022-12-26T15:39:50;1.23;;;1.13;;
16352;SDS011;8286;51.274;9.542;2022-12-26T15:42:28;1.70;;;0.93;;
16352;SDS011;8286;51.274;9.542;2022-12-26T15:45:11;1.47;;;1.10;;
16352;SDS011;8286;51.274;9.542;2022-12-26T15:47:47;0.90;;;0.90;;
16352;SDS011;8286;51.274;9.542;2022-12-26T15:50:21;1.80;;;1.10;;
16352;SDS011;8286;51.274;9.542;2022-12-26T15:52:53;1.67;;;1.13;;
16352;SDS011;8286;51.274;9.542;2022-12-26T15:55:29;0.80;;;0.80;;
16352;SDS011;8286;51.274;9.542;2022-12-26T15:58:03;0.90;;;0.80;;
16352;SDS011;8286;51.274;9.542;2022-12-26T16:00:39;0.90;;;0.80;;
16352;SDS011;8286;51.274;9.542;2022-12-26T16:03:21;0.83;;;0.83;;
16352;SDS011;8286;51.274;9.542;2022-12-26T16:05:55;1.07;;;1.07;;
16352;SDS011;8286;51.274;9.542;2022-12-26T16:08:42;2.60;;;0.87;;